logo
Search for airport 
image banner adimage banner adimage banner ad
image banner ad

ENTC - Langnes

Located in Tromsoe, Norway

ICAO - ENTC, IATA - TOS

Data provided by Airmate  

General information

Coordinates: N69°40'53" E18°55'4"
Elevation is 31 feet MSL.
Magnetic variation is 9.5° East
View others Airports in Troms

Operational data

Special qualification required
Current time UTC:
Current local time:
Weather
METAR: ENTC 170720Z 20009KT 9999 FEW040 M00/M07 Q1014 NOSIG RMK WIND 2600FT 17005KT
TAF: TAF ENTC 170500Z 1706/1806 19008KT 9999 SCT060
View NOTAMs / SUP AIP / TFR affecting this airport [VIEW]
Communications frequencies: [VIEW]

Runways:

RWY identifierQFULength (ft)Width (ft)SurfaceLDA (ft)
188041148UNK
368041148UNK

Airport contact information

Address: Tromsoe Norway

Other aviation service providers

Flight schools

Lufttransport As Ato

Lufttransport As Ato
Rated:
View ratings:
[VIEW]

Aviation club (not for profit)

Tromsø Flyklubb

Tromsø Flyklubb

Satellite view of ENTC